Time;durP1;ratioP1;P1;durP2;ratioP2;P2;SDS_P1;SDS_P2;PMS_P1;PMS_P2;Temp;Humidity;BMP_temperature;BMP_pressure;BME280_temperature;BME280_humidity;BME280_pressure;Samples;Min_cycle;Max_cycle;Signal;HPM_P1;HPM_P2
2021/12/08 00:01:22;;;;;;;4.20;2.47;;;6.00;69.80;;;6.68;47.18;97228.13;4884196;28;114724;-87
2021/12/08 00:04:08;;;;;;;2.17;1.93;;;4.90;68.70;;;6.69;46.84;97224.28;4871139;28;123870;-86
2021/12/08 00:06:35;;;;;;;3.37;2.27;;;6.10;69.60;;;6.70;47.41;97230.56;4876025;28;121746;-87
2021/12/08 00:09:26;;;;;;;3.30;2.00;;;6.00;69.60;;;6.74;47.09;97221.31;4859314;28;113722;-87
2021/12/08 00:14:39;;;;;;;5.13;2.03;;;7.10;69.70;;;6.73;46.59;97221.66;4878347;28;123532;-85
2021/12/08 00:17:07;;;;;;;2.83;2.00;;;6.20;68.90;;;6.72;46.48;97206.34;4860393;28;122934;-86
2021/12/08 00:19:33;;;;;;;2.27;1.97;;;7.30;69.70;;;6.73;46.67;97208.75;4891222;28;112610;-86
2021/12/08 00:22:01;;;;;;;2.10;1.90;;;6.10;68.40;;;6.73;45.92;97207.94;4893108;28;114152;-86
2021/12/08 00:24:28;;;;;;;2.70;2.30;;;6.10;68.50;;;6.74;46.03;97209.56;4861646;28;123158;-87
2021/12/08 00:26:56;;;;;;;2.87;1.80;;;6.20;68.30;;;6.75;46.21;97211.97;4893711;28;122112;-86
2021/12/08 00:29:23;;;;;;;3.93;2.23;;;7.90;69.80;;;6.78;45.77;97205.03;4860338;28;113924;-86
2021/12/08 00:32:10;;;;;;;2.70;1.93;;;6.10;68.20;;;6.81;45.97;97216.16;4895005;28;113430;-86
2021/12/08 00:34:55;;;;;;;2.80;2.47;;;6.10;68.20;;;6.81;46.41;97212.63;4878157;28;123898;-87
2021/12/08 00:37:23;;;;;;;5.23;2.20;;;6.10;68.20;;;6.75;46.45;97205.69;4894998;28;123908;-87
2021/12/08 00:40:12;;;;;;;4.97;2.13;;;6.10;68.30;;;6.78;46.59;97205.84;4863565;28;114160;-85
2021/12/08 00:42:40;;;;;;;2.60;2.40;;;6.20;68.40;;;6.76;46.80;97202.59;4876830;28;112517;-86
2021/12/08 00:45:09;;;;;;;4.20;2.30;;;6.10;68.40;;;6.79;46.46;97201.16;4859887;28;122218;-86
2021/12/08 00:51:20;;;;;;;3.20;2.20;;;5.20;67.80;;;6.76;47.40;97185.34;4890377;28;116273;-86
2021/12/08 00:53:47;;;;;;;2.23;2.03;;;7.50;70.10;;;6.79;47.37;97181.94;4890236;28;114522;-87
2021/12/08 00:56:52;;;;;;;2.87;2.30;;;6.20;69.00;;;6.83;46.90;97180.97;4864185;28;124056;-87
2021/12/08 00:59:39;;;;;;;2.33;1.90;;;6.10;69.20;;;6.83;47.10;97180.16;4891184;28;122201;-87
2021/12/08 01:02:08;;;;;;;2.10;1.77;;;6.10;69.40;;;6.83;47.58;97180.16;4875486;28;113750;-87
2021/12/08 01:04:53;;;;;;;2.37;1.70;;;6.30;69.70;;;6.82;47.61;97190.34;4860695;28;112450;-86
2021/12/08 01:07:20;;;;;;;2.70;1.97;;;5.90;69.50;;;6.81;47.56;97196.94;4874413;28;123352;-86
2021/12/08 01:09:47;;;;;;;2.17;1.90;;;6.20;69.50;;;6.77;47.75;97192.44;4891931;28;123429;-87
2021/12/08 01:12:15;;;;;;;3.20;1.80;;;6.20;69.50;;;6.74;47.81;97190.34;4891356;28;112704;-87
2021/12/08 01:14:41;;;;;;;2.13;1.80;;;7.50;70.60;;;6.67;47.47;97196.34;4856651;28;113600;-86
2021/12/08 01:17:47;;;;;;;2.73;2.00;;;7.60;71.00;;;6.66;47.47;97197.47;4858117;28;122328;-86
2021/12/08 01:20:34;;;;;;;2.50;1.70;;;6.20;69.80;;;6.59;48.34;97203.47;4859612;28;122450;-85
2021/12/08 01:23:01;;;;;;;2.97;1.43;;;6.20;70.10;;;6.53;48.49;97207.50;4875722;28;113584;-87
2021/12/08 01:25:29;;;;;;;2.77;1.80;;;7.10;70.90;;;6.51;48.66;97215.25;4888989;28;114592;-86
2021/12/08 01:27:57;;;;;;;2.17;1.47;;;5.90;70.30;;;6.49;48.74;97209.28;4862957;28;123358;-86
2021/12/08 01:30:25;;;;;;;2.50;1.80;;;6.00;70.70;;;6.52;48.86;97213.31;4878175;28;123051;-86
2021/12/08 01:32:53;;;;;;;1.70;1.60;;;7.20;72.00;;;6.50;49.27;97208.16;4874528;28;112931;-87
2021/12/08 01:35:20;;;;;;;1.83;1.47;;;6.90;72.10;;;6.47;49.30;97200.56;4875587;28;113426;-86
2021/12/08 01:37:48;;;;;;;2.37;1.70;;;5.90;72.20;;;6.48;49.26;97206.88;4858799;28;123405;-86
2021/12/08 01:47:01;;;;;;;2.60;1.50;;;4.90;71.50;;;6.43;50.32;97193.31;4876107;28;114789;-86
2021/12/08 01:49:27;;;;;;;2.20;1.70;;;5.90;73.00;;;6.39;50.93;97185.75;4867951;28;123541;-86
2021/12/08 01:51:56;;;;;;;1.73;1.50;;;5.90;73.30;;;6.40;51.45;97184.59;4855788;28;122374;-87
2021/12/08 01:54:23;;;;;;;2.60;1.67;;;5.90;73.50;;;6.39;51.43;97173.94;4874772;28;114474;-86
2021/12/08 01:56:51;;;;;;;2.30;1.70;;;7.20;75.30;;;6.40;51.25;97183.81;4832189;29;113453;-87
2021/12/08 01:59:18;;;;;;;2.70;1.77;;;4.50;73.20;;;6.38;51.52;97175.09;4840847;29;123562;-86
2021/12/08 02:02:04;;;;;;;3.67;1.80;;;5.90;74.90;;;6.37;51.83;97173.50;4841095;29;122190;-86
2021/12/08 02:04:31;;;;;;;4.30;1.77;;;5.80;75.00;;;6.31;51.74;97175.56;4856449;28;113666;-86
2021/12/08 02:06:58;;;;;;;2.80;1.70;;;7.10;76.10;;;6.30;52.13;97184.94;4874208;28;112451;-86
2021/12/08 02:09:27;;;;;;;2.53;1.67;;;6.60;76.10;;;6.32;52.60;97179.94;4870634;28;123572;-86
2021/12/08 02:12:13;;;;;;;3.20;1.70;;;6.60;76.40;;;6.37;52.89;97181.72;4843924;28;123916;-87
2021/12/08 02:14:40;;;;;;;1.93;1.40;;;5.80;75.80;;;6.33;52.55;97178.00;4875499;28;114252;-87
2021/12/08 02:17:10;;;;;;;2.90;1.80;;;5.80;76.20;;;6.36;52.86;97177.34;4857972;28;112583;-87
2021/12/08 02:19:56;;;;;;;1.90;1.43;;;7.30;77.80;;;6.38;53.21;97175.88;4869062;28;123335;-87
2021/12/08 02:23:19;;;;;;;1.87;1.60;;;5.70;76.60;;;6.38;52.92;97169.59;4839025;29;122950;-87
2021/12/08 02:26:06;;;;;;;1.33;1.20;;;5.80;76.90;;;6.36;52.84;97177.34;4849976;29;113541;-87
2021/12/08 02:28:33;;;;;;;3.43;1.47;;;5.10;76.50;;;6.36;53.66;97185.56;4841454;28;112308;-87
2021/12/08 02:31:06;;;;;;;1.77;1.40;;;5.80;77.30;;;6.35;53.66;97181.22;4858628;28;123474;-87
2021/12/08 02:49:00;;;;;;;1.90;1.70;;;5.70;78.60;;;6.19;54.92;97173.50;4854500;29;114051;-88
2021/12/08 02:52:06;;;;;;;1.87;1.30;;;5.70;78.80;;;6.25;54.89;97171.38;4873978;28;113723;-86
2021/12/08 02:58:35;;;;;;;1.60;1.27;;;5.70;79.20;;;6.22;55.29;97174.78;4882688;28;123472;-87
2021/12/08 03:01:41;;;;;;;1.50;1.40;;;5.70;79.40;;;6.23;54.98;97168.16;4862206;28;113733;-87
2021/12/08 03:04:27;;;;;;;1.70;1.43;;;5.60;79.60;;;6.24;55.81;97163.50;4893254;28;113434;-87
2021/12/08 03:07:32;;;;;;;1.77;1.50;;;5.40;79.60;;;6.27;55.39;97151.88;4861252;28;120887;-87
2021/12/08 03:10:10;;;;;;;2.23;1.30;;;5.60;80.20;;;6.25;55.92;97149.44;4878778;28;122988;-87
2021/12/08 03:12:37;;;;;;;1.63;1.30;;;5.60;80.50;;;6.27;55.97;97147.19;4864537;28;112790;-87
2021/12/08 03:15:23;;;;;;;1.60;1.30;;;5.70;80.80;;;6.33;56.33;97156.84;4878694;28;113472;-87
2021/12/08 03:17:52;;;;;;;3.10;1.43;;;4.40;79.90;;;6.33;56.24;97150.56;4864884;28;122639;-88
2021/12/08 03:20:27;;;;;;;2.33;1.50;;;5.70;81.40;;;6.33;56.21;97156.84;4862068;28;123021;-87
2021/12/08 03:23:01;;;;;;;2.10;1.70;;;5.80;81.80;;;6.36;56.30;97158.13;4889700;28;112755;-87
2021/12/08 03:26:32;;;;;;;1.80;1.60;;;7.10;83.00;;;6.41;56.15;97157.97;4877606;28;112541;-87
2021/12/08 03:29:21;;;;;;;1.70;1.57;;;5.80;82.10;;;6.38;57.44;97153.94;4880940;28;122614;-87
2021/12/08 03:31:51;;;;;;;1.80;1.33;;;5.80;82.30;;;6.39;56.81;97161.06;4879992;28;120927;-86
2021/12/08 03:34:20;;;;;;;2.07;1.57;;;5.70;82.40;;;6.39;56.99;97158.31;4861164;28;113934;-88
2021/12/08 03:37:33;;;;;;;2.03;1.60;;;6.10;82.80;;;6.43;57.28;97161.22;4863392;28;113433;-87
2021/12/08 03:40:23;;;;;;;3.00;1.70;;;5.90;82.80;;;6.43;57.61;97168.63;4880548;28;123674;-85
2021/12/08 03:42:57;;;;;;;1.87;1.40;;;5.90;82.90;;;6.42;57.32;97165.06;4876877;28;122363;-87
2021/12/08 03:49:23;;;;;;;1.57;1.40;;;5.90;83.30;;;6.43;57.95;97152.97;4897863;28;113868;-87
2021/12/08 03:51:55;;;;;;;3.83;1.70;;;6.80;84.30;;;6.42;57.55;97151.34;4879841;28;122272;-87
2021/12/08 03:55:00;;;;;;;3.97;1.97;;;6.70;84.30;;;6.45;57.42;97142.50;4879941;28;123775;-85
2021/12/08 03:57:48;;;;;;;2.50;1.60;;;4.50;82.40;;;6.46;57.65;97155.06;4861691;28;112972;-87
2021/12/08 04:00:23;;;;;;;2.10;1.73;;;5.80;83.80;;;6.42;58.09;97143.13;4862162;28;113337;-87
2021/12/08 04:03:50;;;;;;;1.50;1.40;;;6.40;84.40;;;6.48;58.01;97146.53;4860287;28;122145;-87
2021/12/08 04:06:57;;;;;;;2.60;1.50;;;5.20;83.50;;;6.48;57.74;97147.31;4895431;28;122139;-87
2021/12/08 04:09:33;;;;;;;4.90;1.83;;;5.90;84.20;;;6.46;58.06;97148.78;4876192;28;113860;-87
2021/12/08 04:12:40;;;;;;;2.03;1.70;;;6.10;84.60;;;6.49;58.33;97148.91;4846020;28;114233;-88
2021/12/08 04:18:50;;;;;;;3.50;1.60;;;5.90;84.60;;;6.44;58.49;97162.81;4897436;28;124565;-87
2021/12/08 04:21:18;;;;;;;3.13;1.73;;;5.80;84.60;;;6.41;58.63;97157.97;4864585;28;113226;-87
2021/12/08 04:24:06;;;;;;;2.10;1.90;;;6.70;85.50;;;6.40;59.18;97159.13;4864512;28;112145;-87
2021/12/08 04:27:00;;;;;;;2.33;1.80;;;5.30;84.70;;;6.40;58.75;97157.19;4872428;28;123741;-87
2021/12/08 04:29:33;;;;;;;2.90;2.10;;;6.80;86.20;;;6.41;58.93;97160.72;4858950;28;122942;-86
2021/12/08 04:32:00;;;;;;;2.60;1.50;;;6.60;86.10;;;6.42;59.21;97159.56;4875454;28;115241;-87
2021/12/08 04:34:34;;;;;;;2.70;2.23;;;7.20;86.90;;;6.48;59.05;97163.78;4876204;28;114404;-87
2021/12/08 04:37:07;;;;;;;2.50;2.23;;;7.40;87.20;;;6.48;59.46;97163.78;4844720;28;122676;-87
2021/12/08 04:40:33;;;;;;;2.07;1.63;;;4.60;85.10;;;6.49;59.72;97164.59;4860985;28;123834;-87
2021/12/08 04:43:12;;;;;;;3.37;2.20;;;6.60;86.80;;;6.45;60.19;97153.47;4890519;28;114549;-87
2021/12/08 04:46:00;;;;;;;2.80;1.87;;;5.70;86.50;;;6.49;59.92;97151.66;4881073;28;113295;-86
2021/12/08 04:48:39;;;;;;;2.27;1.70;;;5.80;86.80;;;6.51;60.24;97163.13;4862257;28;123019;-87
2021/12/08 04:54:01;;;;;;;2.53;2.33;;;6.50;87.70;;;6.55;60.44;97153.09;4876354;28;113512;-87
2021/12/08 05:10:29;;;;;;;2.20;2.00;;;5.10;87.40;;;6.67;60.55;97155.19;4899961;28;123851;-87
2021/12/08 05:13:01;;;;;;;3.23;2.17;;;5.90;88.10;;;6.67;60.85;97159.88;4877924;28;122415;-87
2021/12/08 05:15:33;;;;;;;3.33;2.17;;;6.00;88.40;;;6.70;61.29;97159.22;4879500;28;113484;-87
2021/12/08 05:18:11;;;;;;;3.20;2.03;;;7.40;89.90;;;6.75;61.48;97159.03;4860542;28;112879;-87
2021/12/08 05:21:24;;;;;;;2.70;1.80;;;6.10;88.70;;;6.78;61.08;97159.19;4878215;28;123907;-87
2021/12/08 05:24:04;;;;;;;3.30;2.10;;;6.10;88.90;;;6.78;61.43;97163.88;4891476;28;122841;-87
2021/12/08 05:26:41;;;;;;;3.13;2.33;;;7.80;90.20;;;6.78;61.66;97172.09;4857813;28;116139;-87
2021/12/08 05:29:38;;;;;;;2.33;2.13;;;6.30;89.40;;;6.78;61.09;97170.16;4891811;28;114766;-88
2021/12/08 05:32:06;;;;;;;2.10;1.90;;;7.40;90.20;;;6.75;61.25;97175.50;4875996;28;123605;-87
2021/12/08 05:34:36;;;;;;;2.47;2.23;;;6.10;89.60;;;6.72;62.02;97170.66;4876714;28;122466;-87
2021/12/08 05:37:08;;;;;;;2.10;1.90;;;7.60;90.40;;;6.74;62.06;97169.19;4872662;28;114048;-86
2021/12/08 05:39:36;;;;;;;5.87;1.97;;;5.30;89.10;;;6.71;62.19;97177.28;4855189;28;114036;-87
2021/12/08 05:42:25;;;;;;;2.80;2.40;;;6.50;90.10;;;6.75;62.10;97167.28;4842917;28;122203;-87
2021/12/08 05:44:54;;;;;;;3.00;2.07;;;6.10;90.00;;;6.70;62.07;97167.44;4856809;28;124278;-86
2021/12/08 05:47:26;;;;;;;4.20;2.60;;;7.10;90.50;;;6.71;62.45;97175.31;4858276;28;113350;-88
2021/12/08 05:49:54;;;;;;;4.17;2.60;;;6.10;90.10;;;6.72;62.78;97179.72;4859293;28;112122;-88
2021/12/08 05:52:21;;;;;;;3.03;2.30;;;6.90;90.50;;;6.73;62.16;97173.06;4859653;28;123525;-87
2021/12/08 05:54:51;;;;;;;3.13;2.40;;;7.50;90.80;;;6.75;62.85;97172.75;4875309;28;122267;-88
2021/12/08 05:57:35;;;;;;;2.93;2.63;;;6.60;90.50;;;6.78;62.76;97158.38;4859899;28;113385;-88
2021/12/08 06:00:17;;;;;;;4.10;2.27;;;6.20;90.40;;;6.79;62.31;97136.06;4875172;28;113769;-87
2021/12/08 06:02:45;;;;;;;3.20;2.57;;;6.30;90.50;;;6.80;62.82;97136.91;4874928;28;124310;-87
2021/12/08 06:05:31;;;;;;;4.30;2.50;;;6.20;90.50;;;6.86;62.82;97147.34;4855229;28;122219;-86
2021/12/08 06:07:58;;;;;;;3.00;2.30;;;6.90;90.90;;;6.84;62.58;97176.28;4858232;28;112644;-88
2021/12/08 06:10:34;;;;;;;3.50;2.83;;;6.20;90.70;;;6.90;63.07;97163.16;4864547;28;111991;-87
2021/12/08 06:13:04;;;;;;;3.13;2.20;;;6.30;90.80;;;6.91;62.49;97151.88;4865667;28;122823;-88
2021/12/08 06:15:31;;;;;;;2.60;2.40;;;6.30;90.70;;;6.96;62.90;97156.34;4869269;28;122110;-86
2021/12/08 06:17:58;;;;;;;3.80;2.40;;;7.00;91.00;;;6.97;62.48;97147.00;4861185;28;114448;-85
2021/12/08 06:20:25;;;;;;;3.10;2.40;;;6.40;90.80;;;6.98;62.93;97146.66;4891339;28;114485;-86
2021/12/08 06:22:56;;;;;;;2.57;2.37;;;7.70;91.40;;;6.99;63.35;97136.50;4872242;28;123699;-89
2021/12/08 06:25:24;;;;;;;3.30;2.87;;;6.40;90.90;;;7.02;63.28;97127.59;4859088;28;122078;-88
2021/12/08 06:27:51;;;;;;;3.53;2.57;;;6.10;90.80;;;7.01;63.25;97121.31;4860334;28;114316;-86
2021/12/08 06:30:24;;;;;;;3.00;2.30;;;6.40;91.10;;;7.04;63.52;97120.63;4873044;28;112277;-88
2021/12/08 06:32:52;;;;;;;8.30;2.67;;;7.90;91.60;;;7.07;63.49;97122.72;4868533;28;124456;-89
2021/12/08 06:35:34;;;;;;;3.00;2.47;;;7.40;91.40;;;7.12;63.42;97116.25;4863702;28;124351;-88
2021/12/08 06:38:03;;;;;;;2.70;2.50;;;6.50;91.10;;;7.13;63.08;97111.56;4857605;28;113583;-87
2021/12/08 06:40:49;;;;;;;4.80;2.50;;;6.50;91.10;;;7.17;62.94;97123.47;4860496;28;112934;-87
2021/12/08 06:43:21;;;;;;;4.70;2.57;;;6.60;91.10;;;7.19;63.18;97118.44;4857298;28;123741;-88
2021/12/08 06:45:51;;;;;;;4.00;2.70;;;8.10;91.80;;;7.19;63.34;97118.44;4865342;28;121948;-88
2021/12/08 06:48:28;;;;;;;3.30;2.70;;;8.20;91.80;;;7.24;63.39;97116.31;4892265;28;112684;-88
2021/12/08 06:51:05;;;;;;;3.00;2.57;;;6.60;91.20;;;7.25;63.48;97114.38;4869570;28;113920;-88
2021/12/08 06:53:36;;;;;;;3.80;2.67;;;6.60;91.60;;;7.21;63.43;97125.22;4840908;29;123095;-88
2021/12/08 06:56:11;;;;;;;3.03;2.70;;;5.40;90.80;;;7.23;63.69;97127.66;4847885;28;122810;-86
2021/12/08 06:58:46;;;;;;;2.80;2.60;;;6.70;91.40;;;7.21;63.61;97122.47;4853882;28;112759;-87
2021/12/08 07:04:29;;;;;;;4.37;2.87;;;6.50;91.30;;;7.22;63.95;97126.03;4866711;28;124759;-88
2021/12/08 07:07:12;;;;;;;3.30;3.00;;;6.60;91.40;;;7.18;64.21;97142.38;4829260;28;123734;-88
2021/12/08 07:09:59;;;;;;;3.90;2.93;;;6.60;91.50;;;7.18;63.79;97153.34;4850291;29;114901;-88
2021/12/08 07:12:37;;;;;;;2.47;2.27;;;6.70;91.50;;;7.18;63.82;97169.84;4843663;28;114495;-88
2021/12/08 07:15:18;;;;;;;3.50;2.87;;;7.30;91.80;;;7.19;64.27;97165.16;4842066;28;123686;-87
2021/12/08 07:17:56;;;;;;;3.40;2.33;;;6.70;91.60;;;7.21;64.12;97162.88;4864077;28;123126;-88
2021/12/08 07:20:47;;;;;;;2.57;2.30;;;6.60;91.50;;;7.21;63.91;97166.44;4841297;29;113307;-87
2021/12/08 07:23:24;;;;;;;2.97;2.67;;;6.70;91.60;;;7.23;64.06;97155.94;4836098;29;113537;-88
2021/12/08 07:25:53;;;;;;;2.50;2.30;;;6.60;91.60;;;7.23;63.72;97155.13;4818850;29;126103;-88
2021/12/08 07:28:24;;;;;;;3.60;2.67;;;6.70;91.70;;;7.26;64.08;97163.50;4818097;29;123324;-85
2021/12/08 07:31:06;;;;;;;3.23;2.53;;;8.20;92.30;;;7.28;64.43;97169.47;4835111;29;114238;-88
2021/12/08 07:33:33;;;;;;;3.80;2.83;;;6.70;91.70;;;7.26;64.18;97159.94;4833211;29;113104;-86
2021/12/08 07:36:05;;;;;;;3.20;2.70;;;6.70;91.70;;;7.27;63.86;97161.56;4816126;29;123716;-89
2021/12/08 07:38:33;;;;;;;4.03;2.43;;;6.70;91.70;;;7.28;64.42;97163.16;4837148;29;122365;-87
2021/12/08 07:41:09;;;;;;;7.83;2.40;;;6.70;91.70;;;7.32;64.19;97149.56;4823218;29;112589;-87
2021/12/08 07:43:43;;;;;;;3.60;3.00;;;7.60;92.10;;;7.34;64.24;97142.63;4822768;29;113391;-86
2021/12/08 07:46:30;;;;;;;3.70;2.53;;;6.80;91.80;;;7.41;64.22;97134.63;4837168;29;122949;-87
2021/12/08 07:49:16;;;;;;;6.07;2.60;;;6.80;91.90;;;7.45;64.49;97138.34;4837465;29;123086;-89
2021/12/08 07:51:51;;;;;;;3.03;2.77;;;6.80;92.00;;;7.52;64.56;97130.38;4837996;29;113128;-85
2021/12/08 07:54:21;;;;;;;8.13;2.63;;;7.50;92.40;;;7.58;64.21;97127.44;4833682;28;113282;-88
2021/12/08 07:56:52;;;;;;;8.20;2.80;;;6.90;92.20;;;7.61;64.43;97132.25;4845041;28;123652;-87
2021/12/08 07:59:22;;;;;;;4.40;2.80;;;6.90;92.10;;;7.60;64.12;97125.94;4891949;28;124099;-86
2021/12/08 08:01:54;;;;;;;5.23;3.00;;;7.00;92.10;;;7.61;64.26;97130.31;4878846;28;114968;-87
2021/12/08 08:04:24;;;;;;;4.97;2.70;;;7.60;92.30;;;7.61;63.96;97143.25;4891259;28;113529;-88
2021/12/08 08:06:58;;;;;;;3.27;2.23;;;6.70;91.90;;;7.60;64.01;97136.94;4891109;28;123706;-87
2021/12/08 08:09:33;;;;;;;3.93;2.80;;;7.00;92.00;;;7.60;64.17;97136.13;4870243;28;123538;-87
2021/12/08 08:12:04;;;;;;;3.17;2.13;;;7.00;92.00;;;7.58;64.32;97147.47;4860522;28;114446;-87
2021/12/08 08:14:55;;;;;;;2.30;2.10;;;7.00;92.00;;;7.60;63.87;97147.13;4877112;28;113764;-87
2021/12/08 08:17:36;;;;;;;2.70;2.33;;;7.00;91.90;;;7.57;64.31;97142.31;4877812;28;123839;-88
2021/12/08 08:20:20;;;;;;;2.33;2.07;;;7.00;91.90;;;7.55;63.78;97141.81;4845298;28;123469;-89
2021/12/08 08:22:47;;;;;;;2.80;2.40;;;7.00;91.90;;;7.52;64.20;97133.13;4863882;28;113411;-88
2021/12/08 08:25:20;;;;;;;3.83;2.60;;;8.10;92.30;;;7.50;63.99;97138.16;4877220;28;114081;-86
2021/12/08 08:27:47;;;;;;;6.83;2.87;;;6.90;91.80;;;7.47;63.91;97136.06;4859087;28;123223;-88
2021/12/08 08:30:22;;;;;;;3.13;2.30;;;7.00;91.80;;;7.47;63.74;97138.81;4859304;28;123384;-85
2021/12/08 08:32:52;;;;;;;3.27;2.50;;;7.00;91.80;;;7.47;64.01;97151.75;4860366;28;112718;-80
2021/12/08 08:35:27;;;;;;;4.67;2.47;;;6.90;91.80;;;7.49;63.66;97164.00;4874076;28;113718;-82
2021/12/08 08:37:54;;;;;;;2.80;2.30;;;7.00;91.80;;;7.51;63.71;97161.72;4867682;28;123448;-84
2021/12/08 08:40:37;;;;;;;2.30;2.10;;;7.00;91.80;;;7.52;63.56;97154.28;4871936;28;123905;-81
2021/12/08 08:43:05;;;;;;;4.33;2.20;;;7.00;91.80;;;7.48;63.91;97148.66;4878024;28;112861;-82
2021/12/08 08:45:52;;;;;;;3.10;1.97;;;6.90;91.70;;;7.51;63.64;97152.69;4863197;28;113255;-83
2021/12/08 08:48:31;;;;;;;2.63;2.40;;;7.00;91.70;;;7.51;63.74;97149.94;4855996;28;123683;-83
2021/12/08 08:51:35;;;;;;;4.80;2.60;;;7.00;91.70;;;7.52;63.82;97138.63;4860247;28;122740;-87
2021/12/08 08:54:23;;;;;;;4.30;2.00;;;7.00;91.70;;;7.52;63.61;97138.63;4840280;28;114704;-88
2021/12/08 08:57:02;;;;;;;2.93;2.13;;;7.00;91.60;;;7.51;63.34;97137.00;4858741;29;114750;-87
2021/12/08 08:59:38;;;;;;;5.20;2.63;;;7.00;91.60;;;7.47;63.92;97158.06;4833411;29;123565;-88
2021/12/08 09:02:08;;;;;;;2.97;2.50;;;6.90;91.60;;;7.46;63.69;97175.66;4856559;28;121910;-88
2021/12/08 09:04:42;;;;;;;3.20;2.50;;;8.40;92.20;;;7.47;63.88;97179.25;4874340;28;114798;-89
2021/12/08 09:07:21;;;;;;;3.37;2.67;;;7.00;91.60;;;7.44;63.92;97166.97;4872791;28;112373;-90
2021/12/08 09:09:51;;;;;;;3.03;2.27;;;6.90;91.70;;;7.44;64.02;97177.97;4843782;28;123607;-89
2021/12/08 09:12:34;;;;;;;2.40;2.20;;;6.90;91.70;;;7.44;63.88;97172.47;4827564;29;124179;-89
2021/12/08 09:15:22;;;;;;;3.53;2.40;;;6.90;91.70;;;7.46;63.88;97186.66;4851546;28;114089;-88
2021/12/08 09:18:15;;;;;;;5.37;2.70;;;6.80;91.70;;;7.42;63.86;97182.97;4873816;28;113901;-88
2021/12/08 09:21:13;;;;;;;3.23;2.33;;;6.90;91.70;;;7.39;64.12;97185.56;4842906;28;123313;-89
2021/12/08 09:23:45;;;;;;;3.50;2.30;;;7.10;91.80;;;7.41;64.02;97195.06;4843711;28;121967;-87
2021/12/08 09:26:16;;;;;;;3.20;2.87;;;7.90;92.10;;;7.43;63.96;97192.81;4858576;28;113693;-89
2021/12/08 09:29:04;;;;;;;2.57;2.37;;;6.90;91.70;;;7.49;63.60;97183.22;4830326;28;113598;-89
2021/12/08 09:31:46;;;;;;;3.47;2.37;;;6.90;91.70;;;7.52;63.74;97188.09;4855231;28;122520;-88
2021/12/08 09:34:22;;;;;;;2.80;2.47;;;7.00;91.70;;;7.53;63.80;97189.69;4871900;28;123076;-88
2021/12/08 09:37:06;;;;;;;2.53;2.30;;;5.70;91.10;;;7.51;63.39;97177.41;4842451;28;114339;-88
2021/12/08 09:39:51;;;;;;;2.80;2.47;;;8.40;92.20;;;7.52;63.47;97190.00;4859931;28;113753;-87
2021/12/08 09:42:32;;;;;;;2.43;2.23;;;7.00;91.60;;;7.52;63.65;97190.00;4872796;28;123907;-87
2021/12/08 09:45:28;;;;;;;2.97;2.67;;;7.00;91.60;;;7.53;63.47;97181.44;4857671;28;121850;-88
2021/12/08 09:47:55;;;;;;;3.70;2.80;;;7.00;91.60;;;7.53;63.70;97175.16;4860585;28;115105;-85
2021/12/08 09:50:22;;;;;;;3.10;2.80;;;7.00;91.60;;;7.53;63.80;97170.44;4856035;28;114892;-87
2021/12/08 09:52:49;;;;;;;3.10;2.00;;;8.10;92.00;;;7.55;63.75;97169.31;4858628;28;123027;-87
2021/12/08 09:55:17;;;;;;;2.70;2.50;;;7.00;91.50;;;7.55;63.73;97172.88;4854787;28;124497;-88
2021/12/08 09:57:46;;;;;;;2.60;2.37;;;7.00;91.50;;;7.56;63.43;97171.72;4839141;29;114067;-86
2021/12/08 10:00:26;;;;;;;4.10;2.87;;;7.00;91.50;;;7.59;63.20;97165.56;4865026;28;112514;-86
2021/12/08 10:02:58;;;;;;;3.30;2.50;;;7.30;91.60;;;7.58;63.08;97163.16;4851123;28;124240;-85
2021/12/08 10:05:29;;;;;;;3.80;2.40;;;7.10;91.50;;;7.63;63.29;97165.69;4849794;28;123753;-86
2021/12/08 10:07:57;;;;;;;2.20;2.00;;;7.10;91.50;;;7.65;63.06;97160.69;4839348;28;113679;-85
2021/12/08 10:10:25;;;;;;;2.80;2.07;;;7.10;91.50;;;7.66;62.87;97157.59;4853738;28;113740;-87
2021/12/08 10:12:52;;;;;;;2.33;2.03;;;7.10;91.40;;;7.69;63.23;97162.44;4854676;28;124734;-87
2021/12/08 10:15:21;;;;;;;2.77;2.57;;;7.10;91.40;;;7.70;62.91;97158.53;4859458;28;123302;-86
2021/12/08 10:17:49;;;;;;;2.27;2.07;;;7.10;91.40;;;7.72;63.22;97155.47;4853122;28;114326;-87
2021/12/08 10:20:31;;;;;;;5.80;2.87;;;7.20;91.40;;;7.75;62.93;97155.59;4852973;28;113792;-87
2021/12/08 10:23:39;;;;;;;2.50;1.90;;;7.20;91.40;;;7.78;62.52;97159.63;4853180;28;123608;-87
2021/12/08 10:26:11;;;;;;;3.60;2.50;;;7.20;91.40;;;7.77;62.56;97149.78;4872901;28;123010;-87
2021/12/08 10:28:55;;;;;;;2.20;2.00;;;7.20;91.30;;;7.79;62.50;97158.50;4844665;28;114119;-86
2021/12/08 10:31:47;;;;;;;2.10;1.90;;;7.20;91.30;;;7.80;62.70;97151.06;4853963;28;113903;-85
2021/12/08 10:36:58;;;;;;;3.30;2.80;;;7.20;91.30;;;7.82;62.51;97143.25;4857077;28;124895;-88
2021/12/08 10:39:38;;;;;;;2.20;2.00;;;7.20;91.20;;;7.82;62.57;97129.50;4853269;28;114508;-88
2021/12/08 10:42:17;;;;;;;2.90;2.23;;;7.30;91.30;;;7.85;62.84;97132.41;4872454;28;115076;-86
2021/12/08 10:45:21;;;;;;;2.53;2.33;;;7.20;91.20;;;7.86;62.56;97130.44;4857000;28;123171;-88
2021/12/08 10:47:50;;;;;;;4.37;2.47;;;7.30;91.30;;;7.84;62.43;97122.53;4855991;28;124177;-87
2021/12/08 10:56:20;;;;;;;3.17;2.83;;;7.30;91.20;;;7.85;62.33;97110.41;4841378;29;124874;-88
2021/12/08 10:58:50;;;;;;;2.80;2.10;;;7.30;91.20;;;7.82;62.60;97104.75;4866499;28;123411;-87
2021/12/08 11:01:22;;;;;;;2.80;2.30;;;7.30;91.10;;;7.86;62.91;97100.22;4846281;29;114390;-88
2021/12/08 11:04:03;;;;;;;3.13;2.20;;;9.10;91.90;;;7.90;62.89;97093.72;4844341;28;113856;-87
2021/12/08 11:06:40;;;;;;;2.37;2.17;;;7.30;91.20;;;7.95;62.54;97103.69;4840392;28;124047;-85
2021/12/08 11:09:21;;;;;;;3.60;2.53;;;7.30;91.20;;;7.97;62.55;97096.69;4848728;28;124230;-87
2021/12/08 11:11:48;;;;;;;3.00;2.20;;;7.40;91.30;;;7.98;62.50;97097.53;4870058;28;114870;-86
2021/12/08 11:14:15;;;;;;;3.43;2.63;;;7.40;91.20;;;8.01;62.71;97096.06;4857052;28;113766;-88
2021/12/08 11:16:44;;;;;;;2.90;2.47;;;9.40;92.00;;;8.06;62.60;97085.63;4837818;29;123337;-86
2021/12/08 11:19:19;;;;;;;4.03;2.70;;;7.50;91.30;;;8.08;62.71;97096.28;4858837;28;122963;-86
2021/12/08 11:21:50;;;;;;;5.00;2.63;;;7.50;91.30;;;8.10;62.34;97096.75;4854046;28;114299;-86
2021/12/08 11:24:34;;;;;;;3.30;3.00;;;7.50;91.20;;;8.12;62.54;97087.03;4845955;29;113330;-88
2021/12/08 11:27:07;;;;;;;3.17;2.50;;;7.50;91.20;;;8.11;62.53;97079.94;4838021;29;123364;-88
2021/12/08 11:29:40;;;;;;;3.43;2.80;;;7.50;91.20;;;8.15;62.59;97077.28;4841990;29;123001;-87
2021/12/08 11:32:18;;;;;;;2.50;2.17;;;7.60;91.20;;;8.16;62.45;97081.66;4863656;28;115757;-87
2021/12/08 11:34:48;;;;;;;5.57;4.17;;;7.60;91.20;;;8.17;62.56;97069.53;4856956;28;114877;-86
2021/12/08 11:37:19;;;;;;;2.93;2.73;;;9.20;91.90;;;8.20;62.13;97063.34;4853518;28;123060;-86
2021/12/08 11:39:51;;;;;;;2.40;2.20;;;7.60;91.20;;;8.24;62.43;97061.50;4871098;28;123352;-88
2021/12/08 11:42:25;;;;;;;3.00;2.20;;;7.70;91.30;;;8.30;62.27;97075.84;4872235;28;114265;-89
2021/12/08 11:45:03;;;;;;;3.53;2.30;;;7.70;91.30;;;8.30;62.28;97071.16;4857801;28;114068;-88
2021/12/08 11:47:35;;;;;;;3.47;2.80;;;7.70;91.20;;;8.31;62.34;97066.44;4856559;29;123995;-86
2021/12/08 11:50:21;;;;;;;3.83;2.47;;;7.70;91.20;;;8.31;62.16;97072.75;4847375;28;123924;-88
2021/12/08 11:52:53;;;;;;;3.83;2.57;;;7.80;91.20;;;8.34;62.51;97068.53;4895635;28;114825;-87
2021/12/08 11:55:22;;;;;;;3.33;2.30;;;7.70;91.20;;;8.35;62.22;97073.66;4893064;28;114038;-87
2021/12/08 11:57:58;;;;;;;3.90;1.93;;;7.70;91.20;;;8.41;62.06;97079.81;4869704;28;123231;-88
2021/12/08 12:00:34;;;;;;;2.87;2.57;;;7.80;91.20;;;8.43;61.84;97068.44;4875217;28;123803;-86
2021/12/08 12:03:09;;;;;;;4.10;2.53;;;9.20;91.80;;;8.43;61.67;97079.47;4875393;28;114326;-88
2021/12/08 12:05:47;;;;;;;2.30;2.10;;;7.80;91.20;;;8.46;62.00;97073.28;4875949;28;113866;-87
2021/12/08 12:08:20;;;;;;;3.50;2.20;;;7.90;91.20;;;8.47;61.79;97080.41;4877651;28;122933;-88
2021/12/08 12:10:51;;;;;;;2.30;2.00;;;7.80;91.10;;;8.49;61.67;97086.34;4891593;28;124335;-87
2021/12/08 12:13:18;;;;;;;2.20;2.00;;;8.50;91.40;;;8.49;61.88;97083.59;4880593;28;114253;-87
2021/12/08 12:15:49;;;;;;;3.83;2.73;;;8.40;91.30;;;8.52;61.70;97083.72;4877643;28;111979;-87